createdAt,value
2019-06-10T00:00:41.441Z,17.97
2019-06-10T00:05:44.584Z,17.93
2019-06-10T00:10:48.011Z,17.71
2019-06-10T00:15:51.656Z,17.54
2019-06-10T00:20:55.135Z,17.34
2019-06-10T00:26:01.286Z,17.30
2019-06-10T00:31:05.314Z,16.88
2019-06-10T00:36:13.257Z,17.06
2019-06-10T00:41:14.343Z,17.25
2019-06-10T00:46:17.913Z,17.29
2019-06-10T00:51:21.681Z,17.34
2019-06-10T00:56:25.107Z,17.17
2019-06-10T01:01:31.105Z,16.97
2019-06-10T01:06:33.660Z,16.93
2019-06-10T01:11:37.097Z,16.93
2019-06-10T01:16:41.126Z,16.68
2019-06-10T01:21:44.777Z,16.75
2019-06-10T01:26:50.444Z,16.75
2019-06-10T01:31:53.293Z,16.91
2019-06-10T01:36:56.696Z,17.10
2019-06-10T01:42:00.611Z,17.23
2019-06-10T01:47:04.269Z,17.12
2019-06-10T01:52:07.677Z,17.16
2019-06-10T01:57:13.814Z,17.16
2019-06-10T02:02:23.801Z,17.20
2019-06-10T02:07:26.284Z,16.77
2019-06-10T02:12:31.477Z,16.78
2019-06-10T02:17:35.020Z,16.87
2019-06-10T02:22:40.945Z,16.88
2019-06-10T02:27:43.869Z,16.77
2019-06-10T02:32:47.491Z,16.89
2019-06-10T02:37:53.730Z,16.92
2019-06-10T02:42:57.779Z,16.70
2019-06-10T02:48:04.122Z,16.66
2019-06-10T02:53:06.527Z,16.69
2019-06-10T02:58:13.634Z,16.76
2019-06-10T03:03:25.688Z,16.68
2019-06-10T03:08:26.006Z,16.83
2019-06-10T03:13:25.860Z,17.04
2019-06-10T03:18:29.533Z,17.20
2019-06-10T03:23:33.273Z,17.36
2019-06-10T03:28:36.684Z,17.47
2019-06-10T03:33:43.092Z,17.50
2019-06-10T03:38:45.231Z,17.57
2019-06-10T03:43:48.609Z,17.68
2019-06-10T03:48:52.640Z,17.52
2019-06-10T03:53:56.242Z,17.41
2019-06-10T03:58:59.673Z,17.50
2019-06-10T04:04:03.070Z,17.47
2019-06-10T04:09:06.986Z,17.51
2019-06-10T04:14:12.808Z,17.31
2019-06-10T04:19:15.818Z,17.48
2019-06-10T04:24:20.298Z,17.55
2019-06-10T04:29:26.156Z,17.79
2019-06-10T04:34:32.759Z,17.95
2019-06-10T04:39:34.925Z,18.05
2019-06-10T04:44:38.294Z,18.05
2019-06-10T04:49:42.860Z,17.96
2019-06-10T04:54:46.437Z,18.03
2019-06-10T04:59:49.839Z,18.06
2019-06-10T05:04:53.336Z,18.15
2019-06-10T05:09:56.954Z,18.21
2019-06-10T05:15:00.411Z,18.24
2019-06-10T05:20:06.074Z,18.25
2019-06-10T05:25:09.836Z,18.34
2019-06-10T05:30:13.974Z,18.41
2019-06-10T05:35:17.438Z,18.52
2019-06-10T05:40:23.120Z,18.56
2019-06-10T05:45:27.572Z,18.77
2019-06-10T05:50:33.587Z,18.96
2019-06-10T05:55:36.906Z,18.98
2019-06-10T06:00:42.729Z,18.88
2019-06-10T06:05:45.670Z,18.87
2019-06-10T06:10:49.071Z,18.70
2019-06-10T06:15:52.881Z,18.76
2019-06-10T06:20:56.630Z,18.82
2019-06-10T06:26:00.030Z,18.88
2019-06-10T06:31:03.788Z,18.89
2019-06-10T06:36:07.417Z,18.97
2019-06-10T06:41:13.433Z,19.09
2019-06-10T06:46:16.018Z,19.19
2019-06-10T06:51:35.489Z,19.16
2019-06-10T06:56:24.760Z,19.20
2019-06-10T07:01:29.675Z,19.16
2019-06-10T07:06:34.555Z,19.14
2019-06-10T07:11:41.264Z,19.22
2019-06-10T07:16:46.607Z,19.28
2019-06-10T07:22:07.468Z,19.35
2019-06-10T07:26:55.353Z,19.50
2019-06-10T07:31:58.736Z,19.57
2019-06-10T07:37:02.662Z,19.59
2019-06-10T07:42:06.034Z,19.72
2019-06-10T07:47:09.430Z,19.84
2019-06-10T07:52:19.388Z,19.97
2019-06-10T07:57:18.177Z,20.16
2019-06-10T08:02:23.103Z,20.45
2019-06-10T08:07:26.680Z,20.74
2019-06-10T08:12:32.407Z,20.85
2019-06-10T08:17:35.730Z,20.95
2019-06-10T08:22:44.307Z,21.13
2019-06-10T08:27:47.388Z,21.43
2019-06-10T08:32:53.419Z,21.74
2019-06-10T08:37:54.517Z,21.90
2019-06-10T08:42:57.930Z,22.00
2019-06-10T08:48:02.728Z,21.84
2019-06-10T08:53:14.369Z,21.68
2019-06-10T08:58:12.876Z,21.96
2019-06-10T09:03:16.453Z,22.28
2019-06-10T09:08:20.418Z,22.38
2019-06-10T09:13:24.048Z,22.65
2019-06-10T09:18:27.461Z,22.68
2019-06-10T09:23:33.048Z,22.71
2019-06-10T09:28:36.237Z,22.67
2019-06-10T09:33:42.453Z,22.85
2019-06-10T09:38:47.310Z,22.94
2019-06-10T09:43:55.759Z,22.80
2019-06-10T09:48:57.822Z,22.85
2019-06-10T09:54:06.086Z,22.96
2019-06-10T09:59:09.587Z,23.05
2019-06-10T10:04:12.983Z,23.38
2019-06-10T10:09:16.377Z,23.67
2019-06-10T10:14:19.798Z,23.78
2019-06-10T10:19:23.257Z,24.17
2019-06-10T10:24:26.897Z,24.20
2019-06-10T10:29:32.713Z,24.41
2019-06-10T10:34:35.429Z,24.63
2019-06-10T10:39:39.057Z,24.39
2019-06-10T10:44:46.208Z,24.36
2019-06-10T10:49:47.563Z,24.40
2019-06-10T10:54:51.894Z,24.58
2019-06-10T10:59:56.373Z,24.86
2019-06-10T11:04:59.779Z,25.04
2019-06-10T11:10:04.914Z,25.05
2019-06-10T11:15:08.761Z,25.20
2019-06-10T11:20:13.596Z,25.24
2019-06-10T11:25:17.366Z,25.37
2019-06-10T11:30:20.926Z,25.54
2019-06-10T11:35:24.436Z,25.59
2019-06-10T11:40:27.997Z,25.64
2019-06-10T11:45:32.832Z,25.63
2019-06-10T11:50:36.387Z,25.71
2019-06-10T11:55:42.247Z,25.75
2019-06-10T12:00:45.197Z,25.87
2019-06-10T12:05:49.123Z,25.92
2019-06-10T12:10:57.337Z,26.17
2019-06-10T12:21:03.667Z,26.28
2019-06-10T12:26:07.774Z,26.45
2019-06-10T12:31:13.510Z,26.48
2019-06-10T12:36:16.302Z,26.72
2019-06-10T12:41:19.708Z,26.80
2019-06-10T12:46:23.425Z,26.89
2019-06-10T12:51:27.095Z,26.87
2019-06-10T12:56:32.817Z,26.83
2019-06-10T13:01:35.904Z,26.92
2019-06-10T13:06:40.335Z,26.78
2019-06-10T13:11:43.726Z,26.71
2019-06-10T13:16:47.146Z,26.72
2019-06-10T13:21:52.793Z,26.71
2019-06-10T13:26:56.544Z,26.85
2019-06-10T13:32:02.804Z,27.23
2019-06-10T13:37:06.972Z,27.16
2019-06-10T13:42:13.307Z,27.32
2019-06-10T13:47:15.872Z,27.49
2019-06-10T13:52:19.280Z,27.51
2019-06-10T13:57:23.113Z,27.52
2019-06-10T14:02:26.500Z,27.87
2019-06-10T14:07:29.893Z,28.08
2019-06-10T14:12:33.372Z,28.09
2019-06-10T14:17:36.861Z,28.06
2019-06-10T14:22:42.417Z,27.77
2019-06-10T14:27:45.408Z,27.74
2019-06-10T14:32:49.140Z,27.62
2019-06-10T14:37:53.431Z,27.67
2019-06-10T14:42:57.010Z,28.45
2019-06-10T14:48:02.744Z,28.20
2019-06-10T14:53:06.893Z,28.42
2019-06-10T14:58:13.809Z,28.48
2019-06-10T15:03:19.686Z,28.97
2019-06-10T15:08:23.123Z,28.58
2019-06-10T15:13:26.278Z,28.34
2019-06-10T15:18:32.805Z,27.98
2019-06-10T15:23:35.125Z,27.31
2019-06-10T15:28:38.865Z,26.92
2019-06-10T15:33:43.137Z,26.64
2019-06-10T15:38:46.601Z,26.37
2019-06-10T15:43:52.890Z,26.11
2019-06-10T15:48:55.458Z,25.82
2019-06-10T15:53:58.944Z,25.60
2019-06-10T15:59:02.930Z,25.29
2019-06-10T16:04:06.490Z,25.05
2019-06-10T16:09:12.150Z,24.78
2019-06-10T16:14:15.118Z,24.43
2019-06-10T16:19:19.650Z,24.07
2019-06-10T16:24:26.891Z,23.90
2019-06-10T16:29:28.740Z,23.70
2019-06-10T16:34:32.648Z,23.32
2019-06-10T16:39:36.048Z,23.01
2019-06-10T16:44:39.445Z,22.88
2019-06-10T16:49:42.971Z,22.77
2019-06-10T16:54:46.418Z,21.82
2019-06-10T16:59:51.968Z,21.36
2019-06-10T17:04:58.276Z,21.25
2019-06-10T17:10:02.388Z,21.41
2019-06-10T17:15:13.002Z,21.40
2019-06-10T17:20:16.669Z,21.50
2019-06-10T17:25:23.547Z,21.52
2019-06-10T17:30:27.199Z,21.68
2019-06-10T17:35:36.426Z,21.72
2019-06-10T17:40:36.438Z,21.68
2019-06-10T17:45:42.085Z,21.66
2019-06-10T17:50:45.221Z,21.59
2019-06-10T17:55:48.734Z,21.31
2019-06-10T18:00:53.079Z,20.96
2019-06-10T18:05:56.822Z,20.78
2019-06-10T18:11:00.236Z,20.77
2019-06-10T18:16:03.647Z,20.79
2019-06-10T18:21:07.087Z,20.81
2019-06-10T18:26:12.385Z,20.79
2019-06-10T18:31:18.531Z,20.62
2019-06-10T18:36:24.168Z,20.71
2019-06-10T18:41:26.314Z,20.66
2019-06-10T18:46:32.666Z,20.66
2019-06-10T18:51:37.244Z,20.49
2019-06-10T18:56:40.182Z,20.49
2019-06-10T19:01:43.828Z,20.39
2019-06-10T19:06:47.226Z,20.41
2019-06-10T19:11:50.622Z,20.46
2019-06-10T19:16:54.051Z,20.54
2019-06-10T19:22:05.562Z,20.62
2019-06-10T19:27:05.354Z,20.63
2019-06-10T19:32:08.036Z,20.42
2019-06-10T19:37:12.888Z,20.23
2019-06-10T19:42:16.378Z,20.09
2019-06-10T19:47:20.014Z,19.89
2019-06-10T19:52:23.605Z,19.83
2019-06-10T19:57:27.016Z,19.69
2019-06-10T20:02:32.622Z,19.48
2019-06-10T20:07:35.855Z,19.32
2019-06-10T20:12:40.372Z,19.19
2019-06-10T20:17:44.460Z,19.21
2019-06-10T20:22:48.194Z,19.26
2019-06-10T20:27:52.332Z,19.37
2019-06-10T20:32:56.563Z,19.46
2019-06-10T20:38:04.656Z,19.53
2019-06-10T20:43:05.257Z,19.60
2019-06-10T20:48:08.680Z,19.64
2019-06-10T20:53:18.264Z,19.61
2019-06-10T20:58:17.291Z,19.48
2019-06-10T21:03:22.740Z,19.46
2019-06-10T21:08:29.622Z,19.44
2019-06-10T21:13:33.358Z,19.31
2019-06-10T21:18:36.719Z,19.15
2019-06-10T21:23:42.824Z,19.09
2019-06-10T21:28:48.687Z,18.96
2019-06-10T21:33:55.367Z,18.90
2019-06-10T21:38:56.431Z,18.89
2019-06-10T21:44:02.761Z,18.93
2019-06-10T21:49:05.387Z,18.88
2019-06-10T21:54:08.810Z,18.70
2019-06-10T21:59:12.674Z,18.52
2019-06-10T22:04:16.122Z,18.46
2019-06-10T22:09:19.510Z,18.49
2019-06-10T22:14:23.906Z,18.48
2019-06-10T22:19:27.306Z,18.37
2019-06-10T22:24:30.701Z,18.20
2019-06-10T22:29:34.124Z,17.95
2019-06-10T22:34:37.809Z,17.86
2019-06-10T22:39:42.086Z,17.86
2019-06-10T22:44:45.805Z,17.87
2019-06-10T22:49:49.960Z,17.90
2019-06-10T22:54:55.140Z,17.94
2019-06-10T22:59:59.426Z,17.94
2019-06-10T23:05:05.448Z,17.83
2019-06-10T23:10:12.231Z,17.89
2019-06-10T23:15:15.550Z,17.71
2019-06-10T23:20:18.990Z,17.65
2019-06-10T23:25:22.418Z,17.65
2019-06-10T23:30:25.822Z,17.81
2019-06-10T23:35:29.228Z,17.91
2019-06-10T23:40:32.631Z,17.94
2019-06-10T23:45:36.062Z,17.89
2019-06-10T23:50:39.761Z,17.82
2019-06-10T23:55:43.487Z,17.81
